Time;durP1;ratioP1;P1;durP2;ratioP2;P2;SDS_P1;SDS_P2;PMS_P1;PMS_P2;Temp;Humidity;BMP_temperature;BMP_pressure;BME280_temperature;BME280_humidity;BME280_pressure;Samples;Min_cycle;Max_cycle;Signal;HPM_P1;HPM_P2
2021/11/22 00:00:20;;;;;;;15.07;8.23;;;;;;;;;;5043886;28;21774;-64
2021/11/22 00:02:47;;;;;;;15.57;8.18;;;;;;;;;;5033755;28;20034;-64
2021/11/22 00:05:14;;;;;;;14.50;7.53;;;;;;;;;;5039626;28;20055;-65
2021/11/22 00:07:39;;;;;;;19.65;8.25;;;;;;;;;;5038357;28;20441;-64
2021/11/22 00:10:06;;;;;;;15.10;8.02;;;;;;;;;;5041042;28;20064;-64
2021/11/22 00:12:33;;;;;;;19.92;8.07;;;;;;;;;;5041813;28;20108;-64
2021/11/22 00:14:59;;;;;;;18.63;8.32;;;;;;;;;;5040250;28;20383;-65
2021/11/22 00:17:25;;;;;;;20.02;8.23;;;;;;;;;;5041592;28;20033;-64
2021/11/22 00:19:50;;;;;;;17.50;8.20;;;;;;;;;;5020273;28;20473;-64
2021/11/22 00:22:15;;;;;;;14.05;7.72;;;;;;;;;;5039207;28;20521;-65
2021/11/22 00:24:41;;;;;;;14.18;7.63;;;;;;;;;;5045400;28;20040;-65
2021/11/22 00:27:07;;;;;;;13.38;7.70;;;;;;;;;;5046994;28;20024;-64
2021/11/22 00:29:33;;;;;;;15.73;8.32;;;;;;;;;;5033691;28;20044;-64
2021/11/22 00:32:01;;;;;;;14.98;8.10;;;;;;;;;;5033232;28;20092;-64
2021/11/22 00:34:26;;;;;;;17.90;8.70;;;;;;;;;;5031266;28;20029;-64
2021/11/22 00:36:52;;;;;;;15.57;8.82;;;;;;;;;;5033761;28;20037;-64
2021/11/22 00:39:17;;;;;;;17.92;8.05;;;;;;;;;;5033233;28;20025;-64
2021/11/22 00:41:43;;;;;;;16.95;9.10;;;;;;;;;;5033085;28;20033;-64
2021/11/22 00:44:08;;;;;;;17.40;9.18;;;;;;;;;;5035946;28;20037;-65
2021/11/22 00:46:34;;;;;;;15.20;8.20;;;;;;;;;;5041803;28;20099;-65
2021/11/22 00:48:59;;;;;;;17.77;9.07;;;;;;;;;;5023726;28;20033;-65
2021/11/22 00:51:25;;;;;;;17.45;8.55;;;;;;;;;;5037560;28;20025;-64
2021/11/22 00:53:52;;;;;;;17.02;9.20;;;;;;;;;;5045937;28;20025;-65
2021/11/22 00:56:18;;;;;;;18.02;9.30;;;;;;;;;;5037249;28;20431;-64
2021/11/22 00:58:44;;;;;;;18.88;9.70;;;;;;;;;;5050924;28;20016;-64
2021/11/22 01:01:11;;;;;;;16.35;9.25;;;;;;;;;;5027168;28;20036;-65
2021/11/22 01:03:36;;;;;;;22.90;9.77;;;;;;;;;;5044311;28;20086;-65
2021/11/22 01:06:03;;;;;;;21.63;9.20;;;;;;;;;;5025195;28;20060;-65
2021/11/22 01:08:28;;;;;;;20.27;9.20;;;;;;;;;;5038200;28;20075;-64
2021/11/22 01:10:54;;;;;;;17.90;9.02;;;;;;;;;;5039022;28;20303;-64
2021/11/22 01:13:19;;;;;;;17.63;9.02;;;;;;;;;;5038396;28;20025;-64
2021/11/22 01:15:45;;;;;;;14.23;8.35;;;;;;;;;;5040657;28;20054;-65
2021/11/22 01:18:10;;;;;;;17.00;8.32;;;;;;;;;;5045030;28;20036;-65
2021/11/22 01:20:36;;;;;;;18.70;8.90;;;;;;;;;;5037404;28;20022;-65
2021/11/22 01:23:06;;;;;;;17.08;8.20;;;;;;;;;;5049431;28;20032;-65
2021/11/22 01:25:32;;;;;;;14.70;8.10;;;;;;;;;;5037755;28;20081;-65
2021/11/22 01:27:57;;;;;;;19.02;8.82;;;;;;;;;;5041314;28;20132;-65
2021/11/22 01:30:23;;;;;;;18.08;8.90;;;;;;;;;;5024239;28;20155;-64
2021/11/22 01:32:49;;;;;;;18.70;9.05;;;;;;;;;;5034798;28;20034;-65
2021/11/22 01:35:15;;;;;;;19.92;10.32;;;;;;;;;;5032162;28;20033;-64
2021/11/22 01:37:41;;;;;;;17.20;9.35;;;;;;;;;;5039026;28;20496;-64
2021/11/22 01:40:09;;;;;;;19.17;9.93;;;;;;;;;;5035110;28;20418;-64
2021/11/22 01:42:37;;;;;;;19.70;10.25;;;;;;;;;;5040670;28;20051;-64
2021/11/22 01:45:07;;;;;;;20.35;10.35;;;;;;;;;;5037008;28;20072;-65
2021/11/22 01:47:33;;;;;;;21.95;10.52;;;;;;;;;;5017308;28;20120;-64
2021/11/22 01:49:58;;;;;;;21.52;10.48;;;;;;;;;;5038304;28;20133;-64
2021/11/22 01:52:23;;;;;;;20.75;10.27;;;;;;;;;;5039271;28;20159;-65
2021/11/22 01:54:49;;;;;;;20.27;10.50;;;;;;;;;;5041481;28;20076;-64
2021/11/22 01:57:17;;;;;;;23.27;10.30;;;;;;;;;;5017035;28;20470;-65
2021/11/22 01:59:43;;;;;;;20.38;10.18;;;;;;;;;;5020018;28;20553;-65
2021/11/22 02:02:09;;;;;;;18.70;9.57;;;;;;;;;;5023261;28;20131;-65
2021/11/22 02:04:35;;;;;;;22.02;10.38;;;;;;;;;;5013834;28;20093;-64
2021/11/22 02:07:00;;;;;;;23.10;10.07;;;;;;;;;;5027632;28;20461;-65
2021/11/22 02:09:25;;;;;;;20.13;10.40;;;;;;;;;;5043044;28;20083;-65
2021/11/22 02:11:51;;;;;;;21.50;9.95;;;;;;;;;;5044850;28;20021;-65
2021/11/22 02:14:16;;;;;;;20.20;9.68;;;;;;;;;;5042041;28;20044;-65
2021/11/22 02:16:42;;;;;;;21.40;9.93;;;;;;;;;;5044002;28;20024;-65
2021/11/22 02:19:07;;;;;;;26.67;10.43;;;;;;;;;;5019150;28;20037;-65
2021/11/22 02:21:33;;;;;;;20.67;9.75;;;;;;;;;;5041759;28;20115;-65
2021/11/22 02:23:58;;;;;;;20.38;10.07;;;;;;;;;;5045027;28;20021;-64
2021/11/22 02:26:24;;;;;;;20.70;10.73;;;;;;;;;;5034857;28;20022;-64
2021/11/22 02:28:49;;;;;;;24.30;10.77;;;;;;;;;;5035664;28;20107;-65
2021/11/22 02:31:16;;;;;;;19.42;10.15;;;;;;;;;;5034806;28;20433;-64
2021/11/22 02:33:41;;;;;;;24.15;10.02;;;;;;;;;;5026602;28;20078;-65
2021/11/22 02:36:07;;;;;;;21.27;9.73;;;;;;;;;;5038825;28;20033;-64
2021/11/22 02:38:35;;;;;;;22.92;9.50;;;;;;;;;;5011161;28;20143;-65
2021/11/22 02:41:02;;;;;;;17.55;8.57;;;;;;;;;;5031561;28;20049;-65
2021/11/22 02:43:30;;;;;;;19.60;9.52;;;;;;;;;;5035224;28;20051;-64
2021/11/22 02:45:56;;;;;;;15.30;9.05;;;;;;;;;;5034858;28;20060;-65
2021/11/22 02:48:23;;;;;;;19.80;9.15;;;;;;;;;;5045493;28;20094;-64
2021/11/22 02:50:49;;;;;;;17.40;9.75;;;;;;;;;;5037520;28;20032;-65
2021/11/22 02:53:16;;;;;;;20.30;8.95;;;;;;;;;;5041518;28;20047;-65
2021/11/22 02:55:42;;;;;;;16.88;8.10;;;;;;;;;;5035611;28;20020;-65
2021/11/22 02:58:07;;;;;;;17.27;8.68;;;;;;;;;;5047904;28;20122;-65
2021/11/22 03:00:36;;;;;;;21.02;8.43;;;;;;;;;;5039300;28;20080;-65
2021/11/22 03:03:01;;;;;;;19.83;9.00;;;;;;;;;;5038906;28;20125;-65
2021/11/22 03:05:28;;;;;;;17.33;7.85;;;;;;;;;;5031511;28;20077;-65
2021/11/22 03:07:55;;;;;;;16.93;7.60;;;;;;;;;;5038200;28;20116;-65
2021/11/22 03:10:23;;;;;;;;;;;;;;;;;;5038245;28;20183;-65
2021/11/22 03:12:49;;;;;;;14.35;7.57;;;;;;;;;;5043923;28;19912;-65
2021/11/22 03:15:17;;;;;;;16.40;8.48;;;;;;;;;;5041812;28;20036;-65
2021/11/22 03:17:43;;;;;;;;;;;;;;;;;;5022675;28;20091;-65
2021/11/22 03:20:11;;;;;;;18.92;8.77;;;;;;;;;;5043142;28;19913;-65
2021/11/22 03:22:36;;;;;;;;;;;;;;;;;;5044416;28;20172;-64
2021/11/22 03:25:05;;;;;;;17.98;7.53;;;;;;;;;;5039250;28;19993;-65
2021/11/22 03:27:30;;;;;;;15.52;7.75;;;;;;;;;;5046818;28;20029;-65
2021/11/22 03:29:56;;;;;;;15.75;8.18;;;;;;;;;;5044535;28;20033;-65
2021/11/22 03:32:22;;;;;;;13.75;7.60;;;;;;;;;;5043316;28;20024;-65
2021/11/22 03:34:48;;;;;;;17.30;7.78;;;;;;;;;;5049309;28;20020;-65
2021/11/22 03:37:15;;;;;;;15.40;7.88;;;;;;;;;;5038730;28;20378;-65
2021/11/22 03:39:45;;;;;;;16.57;7.90;;;;;;;;;;5037623;28;20017;-65
2021/11/22 03:42:15;;;;;;;15.93;8.00;;;;;;;;;;5040562;28;20451;-65
2021/11/22 03:44:40;;;;;;;16.75;7.75;;;;;;;;;;5033200;28;20029;-64
2021/11/22 03:47:06;;;;;;;18.95;8.43;;;;;;;;;;5038665;28;20033;-65
2021/11/22 03:49:33;;;;;;;20.48;8.27;;;;;;;;;;5043949;28;20024;-65
2021/11/22 03:51:59;;;;;;;;;;;;;;;;;;5039806;28;20526;-65
2021/11/22 03:54:24;;;;;;;15.15;8.38;;;;;;;;;;5046849;28;19924;-65
2021/11/22 03:56:50;;;;;;;18.13;8.60;;;;;;;;;;5036639;28;20116;-65
2021/11/22 03:59:15;;;;;;;17.63;9.00;;;;;;;;;;5043197;28;20052;-64
2021/11/22 04:01:41;;;;;;;18.75;9.68;;;;;;;;;;5027326;28;20348;-65
2021/11/22 04:04:06;;;;;;;17.45;9.68;;;;;;;;;;5045673;28;20037;-64
2021/11/22 04:06:32;;;;;;;19.98;9.90;;;;;;;;;;5041049;28;20021;-64
2021/11/22 04:08:58;;;;;;;20.27;10.38;;;;;;;;;;5040749;28;20043;-65
2021/11/22 04:11:24;;;;;;;20.05;10.48;;;;;;;;;;5036303;28;20037;-64
2021/11/22 04:13:52;;;;;;;22.77;11.40;;;;;;;;;;5022380;28;20127;-65
2021/11/22 04:16:19;;;;;;;21.02;11.65;;;;;;;;;;5031072;28;20024;-64
2021/11/22 04:18:45;;;;;;;22.33;11.10;;;;;;;;;;5049200;28;20038;-65
2021/11/22 04:21:13;;;;;;;24.17;12.20;;;;;;;;;;5038973;28;20112;-65
2021/11/22 04:23:38;;;;;;;28.85;12.05;;;;;;;;;;5037776;28;20432;-65
2021/11/22 04:26:06;;;;;;;26.58;12.52;;;;;;;;;;5037061;28;20032;-65
2021/11/22 04:28:31;;;;;;;21.83;11.52;;;;;;;;;;5051225;28;20029;-65
2021/11/22 04:30:56;;;;;;;21.52;10.70;;;;;;;;;;5034411;28;20049;-64
2021/11/22 04:33:22;;;;;;;21.00;10.43;;;;;;;;;;5042009;28;20021;-64
2021/11/22 04:35:47;;;;;;;18.75;9.98;;;;;;;;;;5039823;28;20040;-64
2021/11/22 04:38:13;;;;;;;20.38;10.25;;;;;;;;;;5018415;28;20500;-65
2021/11/22 04:40:38;;;;;;;18.45;9.85;;;;;;;;;;5042887;28;20063;-64
2021/11/22 04:43:04;;;;;;;20.55;9.73;;;;;;;;;;5035958;28;20386;-65
2021/11/22 04:45:30;;;;;;;21.08;9.88;;;;;;;;;;5039532;28;20031;-65
2021/11/22 04:48:01;;;;;;;20.20;9.90;;;;;;;;;;5022576;28;20021;-65
2021/11/22 04:50:27;;;;;;;18.05;10.02;;;;;;;;;;5037496;28;20470;-65
2021/11/22 04:52:54;;;;;;;21.65;10.10;;;;;;;;;;5036986;28;20033;-64
2021/11/22 04:55:21;;;;;;;18.98;9.70;;;;;;;;;;5031986;28;20033;-65
2021/11/22 04:57:47;;;;;;;18.90;9.98;;;;;;;;;;5047911;28;20111;-65
2021/11/22 05:00:15;;;;;;;21.27;10.90;;;;;;;;;;5041397;28;20068;-65
2021/11/22 05:02:42;;;;;;;20.05;10.25;;;;;;;;;;5032271;28;20405;-65
2021/11/22 05:05:09;;;;;;;19.58;9.90;;;;;;;;;;5033308;28;20017;-64
2021/11/22 05:07:35;;;;;;;18.65;9.88;;;;;;;;;;5033299;28;20126;-64
2021/11/22 05:10:01;;;;;;;16.50;10.05;;;;;;;;;;5032683;28;20030;-64
2021/11/22 05:12:26;;;;;;;20.05;10.18;;;;;;;;;;5038175;28;20025;-65
2021/11/22 05:14:52;;;;;;;21.27;10.80;;;;;;;;;;5039475;28;20045;-64
2021/11/22 05:17:17;;;;;;;20.23;10.48;;;;;;;;;;5043343;28;20157;-65
2021/11/22 05:19:43;;;;;;;19.10;10.57;;;;;;;;;;5041358;28;20030;-65
2021/11/22 05:22:08;;;;;;;21.63;10.43;;;;;;;;;;5024640;28;20033;-64
2021/11/22 05:24:34;;;;;;;18.65;9.48;;;;;;;;;;5045709;28;20045;-64
2021/11/22 05:27:03;;;;;;;19.65;10.50;;;;;;;;;;5044616;28;20029;-64
2021/11/22 05:29:28;;;;;;;20.98;9.75;;;;;;;;;;5025032;28;20032;-65
2021/11/22 05:31:54;;;;;;;19.08;10.07;;;;;;;;;;5035029;28;20046;-64
2021/11/22 05:34:20;;;;;;;18.33;9.80;;;;;;;;;;5026279;28;20022;-64
2021/11/22 05:36:46;;;;;;;20.48;9.50;;;;;;;;;;5037562;28;20025;-65
2021/11/22 05:39:12;;;;;;;17.88;9.10;;;;;;;;;;5039116;28;20087;-65
2021/11/22 05:41:38;;;;;;;18.08;9.38;;;;;;;;;;5031373;28;20040;-65
2021/11/22 05:44:04;;;;;;;15.95;8.43;;;;;;;;;;5036918;28;20120;-65
2021/11/22 05:46:29;;;;;;;18.30;8.65;;;;;;;;;;5035262;28;20053;-65
2021/11/22 05:48:55;;;;;;;16.75;8.60;;;;;;;;;;5045986;28;20059;-64
2021/11/22 05:51:21;;;;;;;16.70;8.60;;;;;;;;;;5037356;28;20037;-65
2021/11/22 05:53:49;;;;;;;17.70;9.35;;;;;;;;;;5036627;28;20025;-65
2021/11/22 05:56:17;;;;;;;16.30;8.45;;;;;;;;;;5035455;28;20021;-65
2021/11/22 05:58:44;;;;;;;15.50;8.50;;;;;;;;;;5031789;28;20060;-65
2021/11/22 06:01:10;;;;;;;14.27;7.80;;;;;;;;;;5031856;28;20033;-65
2021/11/22 06:03:37;;;;;;;13.70;7.80;;;;;;;;;;5031484;28;20021;-65
2021/11/22 06:06:03;;;;;;;11.10;7.35;;;;;;;;;;5037450;28;20043;-65
2021/11/22 06:08:29;;;;;;;13.55;7.43;;;;;;;;;;5031357;28;20068;-65
2021/11/22 06:10:55;;;;;;;13.55;7.75;;;;;;;;;;5030574;28;20117;-65
2021/11/22 06:13:21;;;;;;;16.33;8.75;;;;;;;;;;5026346;28;20432;-65
2021/11/22 06:15:47;;;;;;;14.55;7.97;;;;;;;;;;5032302;28;20171;-65
2021/11/22 06:18:14;;;;;;;16.52;8.40;;;;;;;;;;5015582;28;20121;-65
2021/11/22 06:20:41;;;;;;;20.40;8.95;;;;;;;;;;5034735;28;20029;-65
2021/11/22 06:23:07;;;;;;;18.00;9.00;;;;;;;;;;5035537;28;20028;-65
2021/11/22 06:25:37;;;;;;;16.98;8.50;;;;;;;;;;5019471;28;20034;-65
2021/11/22 06:28:05;;;;;;;17.85;9.40;;;;;;;;;;5012863;28;20569;-65
2021/11/22 06:30:30;;;;;;;14.55;8.63;;;;;;;;;;5032128;28;20049;-65
2021/11/22 06:32:57;;;;;;;16.77;9.02;;;;;;;;;;5039454;28;20021;-65
2021/11/22 06:35:23;;;;;;;17.58;9.25;;;;;;;;;;5030787;28;20025;-65
2021/11/22 06:37:51;;;;;;;18.17;9.15;;;;;;;;;;5031167;28;20433;-65
2021/11/22 06:40:19;;;;;;;15.20;9.07;;;;;;;;;;5030948;28;20455;-65
2021/11/22 06:42:47;;;;;;;15.45;9.18;;;;;;;;;;5030048;28;20083;-65
2021/11/22 06:45:13;;;;;;;16.88;9.00;;;;;;;;;;5030114;28;20033;-65
2021/11/22 06:47:39;;;;;;;16.48;9.05;;;;;;;;;;5032473;28;20030;-65
2021/11/22 06:50:06;;;;;;;13.30;8.43;;;;;;;;;;5032179;28;21005;-65
2021/11/22 06:52:31;;;;;;;15.65;9.57;;;;;;;;;;5025506;28;20048;-65
2021/11/22 06:54:58;;;;;;;15.05;8.80;;;;;;;;;;5013409;28;20470;-65
2021/11/22 06:57:24;;;;;;;15.43;8.88;;;;;;;;;;5033011;28;20032;-65
2021/11/22 06:59:50;;;;;;;15.10;9.50;;;;;;;;;;5031298;28;20021;-65
2021/11/22 07:02:16;;;;;;;18.20;9.13;;;;;;;;;;5026682;28;20059;-65
2021/11/22 07:04:45;;;;;;;17.35;9.73;;;;;;;;;;5027987;28;20026;-65
2021/11/22 07:07:12;;;;;;;15.68;10.13;;;;;;;;;;5037480;28;20038;-65
2021/11/22 07:09:38;;;;;;;16.38;9.93;;;;;;;;;;5029124;28;20123;-65
2021/11/22 07:12:06;;;;;;;14.48;9.18;;;;;;;;;;5034568;28;20071;-65
2021/11/22 07:14:32;;;;;;;;;;;;;;;;;;5040592;28;20021;-65
2021/11/22 07:16:59;;;;;;;19.38;10.10;;;;;;;;;;5031228;28;20424;-65
2021/11/22 07:19:26;;;;;;;15.80;8.90;;;;;;;;;;5029906;28;20044;-65
2021/11/22 07:22:00;;;;;;;14.93;8.15;;;;;;;;;;5035322;28;20029;-65
2021/11/22 07:24:26;;;;;;;19.55;9.52;;;;;;;;;;5031251;28;20025;-64
2021/11/22 07:26:52;;;;;;;13.30;8.23;;;;;;;;;;5031955;28;20032;-64
2021/11/22 07:29:20;;;;;;;17.63;9.55;;;;;;;;;;5029795;28;20021;-64
2021/11/22 07:31:50;;;;;;;18.23;9.90;;;;;;;;;;5028724;28;20049;-64
2021/11/22 07:34:16;;;;;;;15.13;8.80;;;;;;;;;;5034601;28;20050;-64
2021/11/22 07:36:49;;;;;;;17.73;9.60;;;;;;;;;;5029500;28;20487;-64
2021/11/22 07:39:14;;;;;;;16.63;9.27;;;;;;;;;;5029717;28;20030;-65
2021/11/22 07:41:44;;;;;;;17.48;9.30;;;;;;;;;;5031816;28;20116;-64
2021/11/22 07:44:12;;;;;;;15.07;8.98;;;;;;;;;;5024813;28;20033;-64
2021/11/22 07:46:39;;;;;;;;;;;;;;;;;;5036249;28;20025;-64
2021/11/22 07:49:04;;;;;;;;;;;;;;;;;;5015079;28;20033;-64
2021/11/22 07:51:30;;;;;;;16.23;8.75;;;;;;;;;;5031592;28;19921;-64
2021/11/22 07:53:57;;;;;;;14.90;9.25;;;;;;;;;;5033572;28;20018;-64
2021/11/22 07:56:23;;;;;;;15.68;8.30;;;;;;;;;;5035804;28;20486;-64
2021/11/22 07:58:49;;;;;;;16.95;9.18;;;;;;;;;;5033388;28;20025;-64
2021/11/22 08:01:20;;;;;;;17.15;9.77;;;;;;;;;;5036518;28;20025;-64
2021/11/22 08:03:46;;;;;;;16.08;9.38;;;;;;;;;;5028394;28;20033;-64
2021/11/22 08:06:11;;;;;;;14.20;8.82;;;;;;;;;;5031130;28;20033;-64
2021/11/22 08:08:44;;;;;;;15.00;8.77;;;;;;;;;;5033719;28;20112;-65
2021/11/22 08:13:39;;;;;;;13.30;8.35;;;;;;;;;;5032001;28;20088;-65
2021/11/22 08:16:07;;;;;;;14.85;8.93;;;;;;;;;;5034477;28;20046;-64
2021/11/22 08:18:36;;;;;;;14.23;8.93;;;;;;;;;;5035029;28;20116;-64
2021/11/22 08:21:03;;;;;;;16.67;9.40;;;;;;;;;;5015743;28;20104;-65
2021/11/22 08:23:31;;;;;;;18.83;9.10;;;;;;;;;;5034091;28;20021;-64
2021/11/22 08:25:57;;;;;;;15.60;8.93;;;;;;;;;;5033541;28;20030;-65
2021/11/22 08:28:29;;;;;;;14.47;8.47;;;;;;;;;;5035547;28;20413;-64
2021/11/22 08:30:54;;;;;;;16.40;9.02;;;;;;;;;;5033276;28;20165;-64
2021/11/22 08:33:34;;;;;;;13.82;7.93;;;;;;;;;;5034541;28;20526;-64
2021/11/22 08:36:04;;;;;;;14.25;7.45;;;;;;;;;;5030518;28;20537;-64
2021/11/22 08:38:29;;;;;;;13.15;7.60;;;;;;;;;;5035001;28;20071;-64
2021/11/22 08:40:56;;;;;;;12.63;7.45;;;;;;;;;;5034226;28;20025;-65
2021/11/22 08:43:22;;;;;;;16.08;7.55;;;;;;;;;;5030065;28;20079;-65
2021/11/22 08:45:48;;;;;;;11.43;6.90;;;;;;;;;;5033660;28;20037;-65
2021/11/22 08:48:16;;;;;;;14.45;7.75;;;;;;;;;;5034474;28;20044;-65
2021/11/22 08:50:43;;;;;;;16.27;8.88;;;;;;;;;;5033743;28;20156;-65
2021/11/22 08:53:09;;;;;;;13.05;7.60;;;;;;;;;;5045919;28;20079;-65
2021/11/22 08:55:40;;;;;;;11.65;7.30;;;;;;;;;;5038926;28;20498;-65
2021/11/22 08:58:06;;;;;;;13.70;7.35;;;;;;;;;;5034032;28;20033;-65
2021/11/22 09:00:36;;;;;;;10.73;6.40;;;;;;;;;;5033454;28;20025;-65
2021/11/22 09:03:04;;;;;;;10.50;7.00;;;;;;;;;;5035318;28;20100;-65
2021/11/22 09:05:35;;;;;;;14.15;7.13;;;;;;;;;;5032356;28;20038;-65
2021/11/22 09:08:03;;;;;;;11.35;6.55;;;;;;;;;;5014921;28;20048;-65
2021/11/22 09:10:28;;;;;;;9.25;6.72;;;;;;;;;;5024618;28;20394;-65
2021/11/22 09:12:54;;;;;;;9.80;6.65;;;;;;;;;;5032671;28;20021;-65
2021/11/22 09:15:21;;;;;;;9.68;6.57;;;;;;;;;;5028418;28;20037;-65
2021/11/22 09:17:48;;;;;;;10.25;6.28;;;;;;;;;;5033353;28;20039;-65
2021/11/22 09:20:14;;;;;;;10.98;6.40;;;;;;;;;;5033007;28;20052;-65
2021/11/22 09:22:41;;;;;;;11.60;6.23;;;;;;;;;;5033170;28;20041;-65
2021/11/22 09:25:09;;;;;;;9.57;5.95;;;;;;;;;;5045796;28;20504;-65
2021/11/22 09:27:35;;;;;;;8.57;5.47;;;;;;;;;;5048939;28;20432;-65
2021/11/22 09:30:03;;;;;;;6.90;4.97;;;;;;;;;;5048017;28;20369;-65
2021/11/22 09:32:30;;;;;;;9.63;5.25;;;;;;;;;;5025918;28;20034;-65
2021/11/22 09:34:56;;;;;;;8.45;5.25;;;;;;;;;;5043614;28;20179;-65
2021/11/22 09:37:22;;;;;;;9.60;5.55;;;;;;;;;;5036913;28;20025;-65
2021/11/22 09:39:48;;;;;;;8.13;5.07;;;;;;;;;;5039273;28;20398;-65
2021/11/22 09:42:15;;;;;;;7.32;5.00;;;;;;;;;;5015021;28;20402;-65
2021/11/22 09:44:41;;;;;;;9.30;4.85;;;;;;;;;;5032381;28;20021;-65
2021/11/22 09:47:06;;;;;;;5.80;4.25;;;;;;;;;;5032746;28;20489;-65
2021/11/22 09:49:32;;;;;;;6.82;4.65;;;;;;;;;;5031041;28;20018;-65
2021/11/22 09:51:58;;;;;;;8.65;5.00;;;;;;;;;;5032143;28;20083;-65
2021/11/22 09:54:24;;;;;;;8.23;5.00;;;;;;;;;;5030811;28;20030;-65
2021/11/22 09:56:50;;;;;;;7.20;4.70;;;;;;;;;;5013602;28;20037;-65
2021/11/22 09:59:17;;;;;;;6.18;3.42;;;;;;;;;;5033673;28;20029;-63
2021/11/22 10:01:43;;;;;;;5.97;4.07;;;;;;;;;;5036977;28;20104;-64
2021/11/22 10:04:19;;;;;;;7.32;4.00;;;;;;;;;;5038412;28;20042;-64
2021/11/22 10:07:01;;;;;;;5.75;3.58;;;;;;;;;;5037677;28;20331;-64
2021/11/22 10:09:33;;;;;;;4.80;3.17;;;;;;;;;;5027234;28;20367;-64
2021/11/22 10:12:01;;;;;;;4.85;3.28;;;;;;;;;;5032117;28;20045;-64
2021/11/22 10:14:30;;;;;;;4.72;3.28;;;;;;;;;;5029619;28;20025;-64
2021/11/22 10:16:55;;;;;;;5.82;2.90;;;;;;;;;;5020273;28;20505;-64
2021/11/22 10:19:21;;;;;;;3.80;2.90;;;;;;;;;;5039475;28;20029;-64
2021/11/22 10:21:48;;;;;;;3.72;2.70;;;;;;;;;;5037498;28;20340;-64
2021/11/22 10:24:14;;;;;;;4.75;2.70;;;;;;;;;;5043524;28;20082;-64
2021/11/22 10:26:43;;;;;;;4.35;2.90;;;;;;;;;;5030234;28;20039;-64
2021/11/22 10:29:10;;;;;;;4.63;2.90;;;;;;;;;;5030472;28;20040;-65
2021/11/22 10:31:37;;;;;;;3.13;2.20;;;;;;;;;;5035319;28;20374;-65
2021/11/22 10:34:05;;;;;;;3.03;2.42;;;;;;;;;;5035734;28;20851;-64
2021/11/22 10:36:36;;;;;;;3.00;2.17;;;;;;;;;;5037573;28;20028;-65
2021/11/22 10:39:04;;;;;;;3.40;2.25;;;;;;;;;;5041583;28;20029;-65
2021/11/22 10:41:34;;;;;;;2.97;1.77;;;;;;;;;;5040929;28;20033;-65
2021/11/22 10:44:04;;;;;;;4.80;2.13;;;;;;;;;;5034108;28;20032;-65
2021/11/22 10:46:44;;;;;;;3.58;2.20;;;;;;;;;;5029825;28;20033;-64
2021/11/22 10:49:16;;;;;;;3.00;2.17;;;;;;;;;;5042287;28;20494;-65
2021/11/22 10:51:46;;;;;;;2.50;1.83;;;;;;;;;;5038902;28;20155;-65
2021/11/22 10:54:14;;;;;;;3.67;2.20;;;;;;;;;;5044249;28;20501;-65
2021/11/22 10:56:43;;;;;;;3.28;2.30;;;;;;;;;;5035131;28;20028;-65
2021/11/22 10:59:16;;;;;;;5.78;2.10;;;;;;;;;;5037113;28;20033;-65
2021/11/22 11:01:50;;;;;;;2.92;2.13;;;;;;;;;;5038821;28;20033;-65
2021/11/22 11:04:27;;;;;;;3.58;2.20;;;;;;;;;;5039312;28;20045;-65
2021/11/22 11:07:00;;;;;;;3.80;1.95;;;;;;;;;;5035023;28;20645;-65
2021/11/22 11:09:40;;;;;;;2.70;1.90;;;;;;;;;;5037453;28;20060;-65
2021/11/22 11:12:10;;;;;;;3.85;1.70;;;;;;;;;;5012180;28;20041;-65
2021/11/22 11:14:47;;;;;;;2.70;2.00;;;;;;;;;;5011764;28;20021;-65
2021/11/22 11:17:18;;;;;;;4.18;1.80;;;;;;;;;;5037371;28;20036;-65
2021/11/22 11:19:46;;;;;;;2.80;1.75;;;;;;;;;;5037901;28;20021;-65
2021/11/22 11:22:42;;;;;;;2.85;1.60;;;;;;;;;;5037710;28;20025;-65
2021/11/22 11:25:11;;;;;;;3.80;1.88;;;;;;;;;;5026795;28;20430;-65
2021/11/22 11:27:40;;;;;;;2.85;1.80;;;;;;;;;;5028399;28;20359;-65
2021/11/22 11:30:12;;;;;;;2.28;1.65;;;;;;;;;;5040242;28;20033;-65
2021/11/22 11:32:38;;;;;;;3.15;1.80;;;;;;;;;;5045638;28;20033;-65
2021/11/22 11:35:07;;;;;;;4.03;2.05;;;;;;;;;;5043782;28;20029;-65
2021/11/22 11:38:07;;;;;;;2.05;1.40;;;;;;;;;;5043139;28;20035;-65
2021/11/22 11:40:56;;;;;;;3.58;1.60;;;;;;;;;;5044039;28;20032;-65
2021/11/22 11:43:42;;;;;;;2.00;1.52;;;;;;;;;;5035424;28;20029;-65
2021/11/22 11:46:28;;;;;;;1.88;1.30;;;;;;;;;;5035390;28;20029;-64
2021/11/22 11:49:00;;;;;;;3.10;1.35;;;;;;;;;;5031454;28;20037;-65
2021/11/22 11:51:38;;;;;;;2.63;1.27;;;;;;;;;;5033778;28;20040;-64
2021/11/22 11:54:09;;;;;;;1.65;1.40;;;;;;;;;;5031660;28;20013;-64
2021/11/22 11:56:38;;;;;;;3.13;1.27;;;;;;;;;;5033158;28;20032;-65
2021/11/22 11:59:45;;;;;;;4.10;1.20;;;;;;;;;;5031657;28;20242;-65
2021/11/22 12:02:24;;;;;;;1.70;1.00;;;;;;;;;;5029399;28;20048;-64
2021/11/22 12:04:57;;;;;;;2.20;1.30;;;;;;;;;;5028875;28;20021;-64
2021/11/22 12:07:23;;;;;;;1.95;1.02;;;;;;;;;;5024565;28;20029;-65
2021/11/22 12:10:04;;;;;;;1.75;0.98;;;;;;;;;;5023415;28;20069;-65
2021/11/22 12:12:38;;;;;;;2.97;0.80;;;;;;;;;;5028990;28;20388;-65
2021/11/22 12:15:26;;;;;;;2.30;0.98;;;;;;;;;;5029533;28;20033;-64
2021/11/22 12:17:54;;;;;;;0.93;0.73;;;;;;;;;;5029393;28;20029;-65
2021/11/22 12:20:24;;;;;;;1.10;0.70;;;;;;;;;;5032234;28;20029;-65
2021/11/22 12:22:53;;;;;;;2.03;0.80;;;;;;;;;;5030778;28;20091;-65
2021/11/22 12:25:37;;;;;;;1.10;0.80;;;;;;;;;;5031101;28;20040;-65
2021/11/22 12:28:23;;;;;;;1.10;0.93;;;;;;;;;;5032793;28;20026;-65
2021/11/22 12:31:01;;;;;;;2.20;0.88;;;;;;;;;;5017712;28;20065;-65
2021/11/22 12:33:26;;;;;;;1.00;0.68;;;;;;;;;;5024352;28;20321;-65
2021/11/22 12:35:53;;;;;;;2.22;0.77;;;;;;;;;;5031788;28;20057;-65
2021/11/22 12:38:35;;;;;;;2.63;0.90;;;;;;;;;;5036494;28;20033;-65
2021/11/22 12:41:05;;;;;;;1.70;0.65;;;;;;;;;;5042736;28;20497;-65
2021/11/22 12:43:42;;;;;;;1.50;0.73;;;;;;;;;;5037427;28;20036;-64
2021/11/22 12:46:10;;;;;;;3.53;0.90;;;;;;;;;;5030167;28;20033;-65
2021/11/22 12:48:44;;;;;;;2.28;1.00;;;;;;;;;;5018862;28;20149;-65
2021/11/22 12:51:15;;;;;;;2.88;0.60;;;;;;;;;;5024571;28;20044;-65
2021/11/22 12:54:00;;;;;;;1.80;0.65;;;;;;;;;;5039482;28;20049;-65
2021/11/22 12:56:28;;;;;;;1.75;0.70;;;;;;;;;;5032438;28;20032;-65
2021/11/22 12:59:22;;;;;;;1.45;0.70;;;;;;;;;;5036129;28;20037;-65
2021/11/22 13:01:58;;;;;;;0.95;0.50;;;;;;;;;;5028498;28;20056;-64
2021/11/22 13:04:47;;;;;;;1.52;0.63;;;;;;;;;;5032463;28;20030;-65
2021/11/22 13:07:37;;;;;;;1.48;0.30;;;;;;;;;;5032793;28;20055;-65
2021/11/22 13:10:11;;;;;;;0.73;0.50;;;;;;;;;;5032873;28;20046;-65
2021/11/22 13:12:46;;;;;;;0.73;0.50;;;;;;;;;;5039289;28;20026;-65
2021/11/22 13:17:45;;;;;;;0.80;0.60;;;;;;;;;;5023500;28;20026;-65
2021/11/22 13:20:14;;;;;;;1.20;0.57;;;;;;;;;;5037050;28;20074;-65
2021/11/22 13:22:39;;;;;;;2.13;0.63;;;;;;;;;;5042538;28;20029;-65
2021/11/22 13:25:18;;;;;;;0.90;0.60;;;;;;;;;;5031452;28;20047;-65
2021/11/22 13:28:08;;;;;;;1.17;0.60;;;;;;;;;;5034173;28;20033;-65
2021/11/22 13:30:35;;;;;;;0.98;0.63;;;;;;;;;;5037414;28;20099;-65
2021/11/22 13:33:00;;;;;;;3.20;0.82;;;;;;;;;;5039504;28;20025;-65
2021/11/22 13:35:26;;;;;;;1.00;0.52;;;;;;;;;;4331364;28;10000819;-65
2021/11/22 13:38:16;;;;;;;1.02;0.50;;;;;;;;;;5017321;28;20029;-64
2021/11/22 13:40:44;;;;;;;1.00;0.60;;;;;;;;;;5010532;28;20128;-65
2021/11/22 13:43:13;;;;;;;1.70;0.80;;;;;;;;;;5037335;28;20040;-65
2021/11/22 13:45:39;;;;;;;0.88;0.40;;;;;;;;;;5034729;28;20452;-65
2021/11/22 13:48:05;;;;;;;2.58;0.55;;;;;;;;;;5045243;28;20032;-65
2021/11/22 13:51:00;;;;;;;1.48;0.57;;;;;;;;;;5041732;28;20058;-65
2021/11/22 13:53:25;;;;;;;1.10;0.50;;;;;;;;;;5018005;28;20502;-65
2021/11/22 13:55:52;;;;;;;2.00;0.60;;;;;;;;;;5032721;28;20148;-65
2021/11/22 13:58:17;;;;;;;0.98;0.50;;;;;;;;;;5016685;28;20040;-65
2021/11/22 14:00:55;;;;;;;2.85;0.68;;;;;;;;;;5035133;28;20032;-65
2021/11/22 14:03:27;;;;;;;1.63;0.60;;;;;;;;;;5038888;28;20029;-65
2021/11/22 14:05:54;;;;;;;0.70;0.55;;;;;;;;;;5039779;28;20037;-65
2021/11/22 14:08:20;;;;;;;5.28;0.85;;;;;;;;;;5042941;28;20029;-65
2021/11/22 14:10:46;;;;;;;2.45;0.70;;;;;;;;;;5012616;28;20033;-65
2021/11/22 14:13:14;;;;;;;1.50;0.90;;;;;;;;;;5040805;28;20028;-65
2021/11/22 14:15:44;;;;;;;3.95;0.80;;;;;;;;;;5040661;28;20104;-65
2021/11/22 14:18:15;;;;;;;1.30;0.70;;;;;;;;;;5036358;28;20459;-65
2021/11/22 14:20:45;;;;;;;0.70;0.65;;;;;;;;;;5028802;28;20025;-65
2021/11/22 14:23:11;;;;;;;1.10;0.90;;;;;;;;;;5026321;28;20035;-65
2021/11/22 14:25:37;;;;;;;1.15;0.85;;;;;;;;;;5028842;28;20506;-64
2021/11/22 14:28:17;;;;;;;1.50;0.88;;;;;;;;;;5042153;28;20037;-65
2021/11/22 14:30:45;;;;;;;1.42;0.88;;;;;;;;;;5039904;28;20081;-65
2021/11/22 15:07:35;;;;;;;2.50;1.30;;;;;;;;;;5040523;28;20158;-65
2021/11/22 15:23:28;;;;;;;2.40;1.05;;;;;;;;;;5030499;28;20104;-65
2021/11/22 15:25:58;;;;;;;3.13;1.30;;;;;;;;;;5033360;28;20482;-65
2021/11/22 15:28:26;;;;;;;1.55;1.17;;;;;;;;;;5037407;28;20701;-65
2021/11/22 15:30:55;;;;;;;65.78;2.83;;;;;;;;;;5038923;28;20044;-65
2021/11/22 15:33:23;;;;;;;2.30;1.00;;;;;;;;;;5013966;28;20034;-65
2021/11/22 15:35:48;;;;;;;1.80;1.08;;;;;;;;;;5036542;28;20378;-65